Time;durP1;ratioP1;P1;durP2;ratioP2;P2;SDS_P1;SDS_P2;PMS_P1;PMS_P2;Temp;Humidity;BMP_temperature;BMP_pressure;BME280_temperature;BME280_humidity;BME280_pressure;Samples;Min_cycle;Max_cycle;Signal;HPM_P1;HPM_P2
2022/01/02 00:00:44;;;;;;;10.87;9.43;;;;;;;3.44;96.84;97446.88;5114972;28;20605;-71
2022/01/02 00:03:14;;;;;;;12.83;10.67;;;;;;;3.32;97.28;97439.69;5115329;28;20209;-73
2022/01/02 00:05:41;;;;;;;9.40;8.40;;;;;;;3.30;98.29;97438.91;5106004;28;20213;-69
2022/01/02 00:08:09;;;;;;;10.13;9.03;;;;;;;3.32;97.99;97437.09;5106940;28;20273;-70
2022/01/02 00:10:37;;;;;;;12.37;9.30;;;;;;;3.17;97.11;97438.72;5106787;28;20209;-71
2022/01/02 00:13:06;;;;;;;9.87;8.80;;;;;;;3.19;96.62;97441.25;5107363;28;20209;-73
2022/01/02 00:15:33;;;;;;;9.53;8.53;;;;;;;3.21;97.87;97439.41;5112278;28;20532;-73
2022/01/02 00:18:06;;;;;;;10.10;8.70;;;;;;;3.10;97.05;97436.50;5114936;28;20212;-71
2022/01/02 00:20:33;;;;;;;9.43;8.43;;;;;;;3.11;97.15;97433.81;5115370;28;20204;-70
2022/01/02 00:23:00;;;;;;;9.30;8.30;;;;;;;3.13;96.99;97434.56;5115204;28;20218;-73
2022/01/02 00:25:30;;;;;;;10.23;8.77;;;;;;;3.14;97.74;97443.25;5112921;28;20249;-74
2022/01/02 00:27:58;;;;;;;10.63;8.63;;;;;;;3.11;97.29;97446.03;5115220;28;20270;-72
2022/01/02 00:30:27;;;;;;;11.23;8.37;;;;;;;3.11;98.46;97432.97;5115079;28;20220;-72
2022/01/02 00:32:53;;;;;;;9.40;8.20;;;;;;;3.12;98.49;97434.66;5101510;28;20197;-73
2022/01/02 00:35:20;;;;;;;9.73;8.63;;;;;;;3.05;97.25;97435.91;5106438;28;20225;-73
2022/01/02 00:37:46;;;;;;;10.67;8.50;;;;;;;3.01;97.76;97433.41;5109431;28;20601;-72
2022/01/02 00:40:14;;;;;;;8.23;7.43;;;;;;;3.03;96.92;97429.88;5115227;28;20212;-73
2022/01/02 00:42:43;;;;;;;6.53;5.93;;;;;;;3.06;97.14;97430.56;5114783;28;20236;-71
2022/01/02 00:45:14;;;;;;;7.53;6.33;;;;;;;3.12;97.53;97438.09;5105372;28;20651;-72
2022/01/02 00:47:48;;;;;;;7.73;6.90;;;;;;;3.00;98.20;97426.50;5110719;28;20251;-73
2022/01/02 00:50:19;;;;;;;7.53;6.80;;;;;;;2.98;98.33;97420.50;5115440;28;20209;-71
2022/01/02 00:52:47;;;;;;;9.30;8.10;;;;;;;3.00;98.88;97410.00;5114786;28;20506;-74
2022/01/02 00:55:15;;;;;;;9.47;8.07;;;;;;;3.06;98.77;97403.59;5108246;28;20204;-73
2022/01/02 00:57:43;;;;;;;8.70;7.80;;;;;;;3.05;97.90;97407.16;5100818;28;20215;-71
2022/01/02 01:00:12;;;;;;;8.63;7.73;;;;;;;3.09;98.17;97424.34;5115103;28;20212;-71
2022/01/02 01:02:48;;;;;;;8.87;7.87;;;;;;;3.18;98.46;97421.28;5114597;28;20213;-72
2022/01/02 01:05:20;;;;;;;9.67;8.50;;;;;;;3.21;97.87;97429.78;5104888;28;20228;-73
2022/01/02 01:07:48;;;;;;;8.93;8.03;;;;;;;3.15;97.78;97413.59;5103055;28;20277;-72
2022/01/02 01:10:14;;;;;;;9.57;7.97;;;;;;;3.11;97.44;97412.06;5109021;28;20225;-70
2022/01/02 01:12:41;;;;;;;8.20;7.40;;;;;;;3.10;97.26;97415.59;5103846;28;20304;-73
2022/01/02 01:15:09;;;;;;;8.90;7.83;;;;;;;3.04;98.41;97415.91;5108275;28;20209;-73
2022/01/02 01:17:37;;;;;;;8.63;7.67;;;;;;;3.10;97.86;97411.22;5114752;28;20201;-71
2022/01/02 01:20:06;;;;;;;9.17;7.77;;;;;;;3.13;98.46;97415.41;5114472;28;20299;-72
2022/01/02 01:22:33;;;;;;;9.40;7.90;;;;;;;2.95;98.53;97418.06;5114998;28;20212;-70
2022/01/02 01:25:00;;;;;;;11.60;8.03;;;;;;;3.00;97.68;97412.59;5109162;28;20205;-73
2022/01/02 01:27:27;;;;;;;8.63;7.83;;;;;;;2.95;97.39;97407.59;5108426;28;20245;-72
2022/01/02 01:29:54;;;;;;;9.73;8.73;;;;;;;2.94;99.14;97411.13;5105634;28;20477;-72
2022/01/02 01:32:20;;;;;;;11.87;9.87;;;;;;;2.94;98.53;97416.34;5116971;28;20201;-72
2022/01/02 01:34:47;;;;;;;10.77;9.60;;;;;;;2.93;98.78;97409.47;5113199;28;20228;-70
2022/01/02 01:37:14;;;;;;;14.27;11.33;;;;;;;2.92;99.68;97417.38;5115172;28;20192;-72
2022/01/02 01:39:41;;;;;;;13.93;11.13;;;;;;;2.81;98.79;97436.19;5137206;28;20221;-72
2022/01/02 01:42:10;;;;;;;13.03;11.63;;;;;;;2.90;98.73;97422.69;5139866;28;20298;-72
2022/01/02 01:47:26;;;;;;;15.87;12.13;;;;;;;2.90;98.74;97417.47;5078797;28;20248;-72
2022/01/02 01:49:53;;;;;;;13.33;11.83;;;;;;;2.81;98.56;97414.44;5105220;28;20229;-71
2022/01/02 01:52:21;;;;;;;14.50;12.23;;;;;;;2.81;98.53;97409.22;5117651;28;20649;-69
2022/01/02 01:54:47;;;;;;;10.47;9.37;;;;;;;2.87;97.79;97417.59;5118050;28;20208;-69
2022/01/02 01:57:14;;;;;;;11.30;9.00;;;;;;;2.93;98.57;97419.06;5118206;28;20215;-70
2022/01/02 01:59:40;;;;;;;11.53;10.33;;;;;;;2.87;97.46;97425.41;5107590;28;20241;-69
2022/01/02 02:02:07;;;;;;;11.37;9.17;;;;;;;2.84;98.37;97411.66;5110341;28;20273;-71
2022/01/02 02:04:33;;;;;;;7.90;7.10;;;;;;;2.88;98.02;97410.59;5104767;28;20205;-71
2022/01/02 02:07:00;;;;;;;8.63;7.73;;;;;;;2.82;98.15;97411.75;5106446;28;20205;-71
2022/01/02 02:09:35;;;;;;;8.53;7.43;;;;;;;2.80;98.80;97397.91;5112550;28;20311;-69
2022/01/02 02:12:01;;;;;;;9.17;7.67;;;;;;;2.86;98.39;97399.41;5112769;28;20697;-71
2022/01/02 02:14:28;;;;;;;10.03;8.10;;;;;;;2.98;97.98;97390.91;5113566;28;20234;-70
2022/01/02 02:16:55;;;;;;;9.87;8.63;;;;;;;2.85;98.42;97380.25;5113115;28;20212;-69
2022/01/02 02:19:21;;;;;;;9.70;8.70;;;;;;;2.84;98.65;97380.31;5124501;28;20204;-70
2022/01/02 02:21:49;;;;;;;12.37;10.30;;;;;;;2.79;98.31;97380.59;5120607;28;20287;-69
2022/01/02 02:24:15;;;;;;;11.47;10.10;;;;;;;2.78;98.08;97378.88;5107122;28;20212;-71
2022/01/02 02:26:44;;;;;;;10.57;8.70;;;;;;;2.88;98.65;97377.50;5117462;28;20236;-71
2022/01/02 02:29:10;;;;;;;10.60;9.33;;;;;;;2.86;99.09;97376.72;5117936;28;20259;-71
2022/01/02 02:31:37;;;;;;;12.37;9.87;;;;;;;2.75;97.09;97367.75;5121126;28;20223;-70
2022/01/02 02:34:03;;;;;;;10.17;9.07;;;;;;;2.75;98.11;97375.59;5104331;28;20211;-69
2022/01/02 02:36:30;;;;;;;9.83;8.83;;;;;;;2.84;99.42;97362.88;5101296;28;20203;-70
2022/01/02 02:38:58;;;;;;;11.13;9.07;;;;;;;2.70;98.44;97364.50;5113205;28;20208;-71
2022/01/02 02:41:30;;;;;;;11.93;9.83;;;;;;;2.62;98.86;97364.06;5108140;28;20204;-72
2022/01/02 02:44:03;;;;;;;8.27;7.37;;;;;;;2.70;98.25;97357.53;5121900;28;20289;-70
2022/01/02 02:49:13;;;;;;;7.13;6.30;;;;;;;2.62;98.31;97351.88;5124390;28;20255;-70
2022/01/02 02:51:48;;;;;;;9.83;6.70;;;;;;;2.56;99.08;97351.31;5115157;28;20226;-70
2022/01/02 02:54:20;;;;;;;7.63;6.60;;;;;;;2.53;98.33;97361.91;5118460;28;20219;-67
2022/01/02 02:56:55;;;;;;;6.57;5.93;;;;;;;2.57;98.22;97351.25;5126095;28;20204;-71
2022/01/02 02:59:23;;;;;;;7.00;6.27;;;;;;;2.66;98.60;97352.56;5129180;28;20188;-71
2022/01/02 03:01:49;;;;;;;8.90;6.77;;;;;;;2.68;98.10;97354.16;5127197;28;20231;-70
2022/01/02 03:04:16;;;;;;;8.47;7.27;;;;;;;2.56;98.13;97346.94;5122499;28;20204;-70
2022/01/02 03:06:42;;;;;;;7.00;6.30;;;;;;;2.57;99.11;97347.78;5102939;28;20300;-71
2022/01/02 03:09:09;;;;;;;6.80;6.10;;;;;;;2.47;98.61;97337.81;5116012;28;20239;-69
2022/01/02 03:11:39;;;;;;;6.87;6.13;;;;;;;2.56;98.09;97341.72;5099092;28;20639;-69
2022/01/02 03:14:07;;;;;;;6.57;5.90;;;;;;;2.47;97.98;97340.44;5091029;28;20577;-68
2022/01/02 03:16:33;;;;;;;8.60;6.90;;;;;;;2.38;98.29;97332.19;5115959;28;20219;-70
2022/01/02 03:19:00;;;;;;;8.13;7.03;;;;;;;2.30;98.08;97323.91;5115831;28;20211;-70
2022/01/02 03:21:27;;;;;;;7.97;6.77;;;;;;;2.29;99.26;97322.22;5115981;28;20253;-69
2022/01/02 03:23:53;;;;;;;9.20;7.80;;;;;;;2.36;100.00;97323.59;5104403;28;20273;-69
2022/01/02 03:26:20;;;;;;;9.07;7.67;;;;;;;2.34;99.61;97328.88;5115494;28;20208;-68
2022/01/02 03:28:48;;;;;;;10.50;8.33;;;;;;;2.34;99.21;97320.22;5116140;28;20322;-69
2022/01/02 03:31:15;;;;;;;9.30;7.50;;;;;;;2.30;99.80;97329.13;5115518;28;20212;-68
2022/01/02 03:33:41;;;;;;;7.87;7.07;;;;;;;2.40;98.60;97320.78;5107145;28;20207;-71
2022/01/02 03:36:08;;;;;;;8.27;7.33;;;;;;;2.27;98.59;97322.28;5113783;28;20197;-69
2022/01/02 03:38:34;;;;;;;8.23;7.43;;;;;;;2.26;98.09;97318.00;5095778;28;20204;-71
2022/01/02 03:41:01;;;;;;;9.20;7.60;;;;;;;2.29;98.14;97319.59;5095654;28;20215;-70
2022/01/02 03:43:27;;;;;;;10.27;8.30;;;;;;;2.25;98.63;97320.69;5095632;28;20253;-71
2022/01/02 03:45:55;;;;;;;9.40;7.90;;;;;;;2.28;98.91;97316.16;5102054;28;20212;-69
2022/01/02 03:48:22;;;;;;;10.00;8.17;;;;;;;2.30;98.98;97303.03;5115755;28;20191;-71
2022/01/02 03:50:48;;;;;;;10.33;7.87;;;;;;;2.23;99.43;97297.25;5108900;28;20239;-70
2022/01/02 03:53:15;;;;;;;9.43;7.80;;;;;;;2.21;99.62;97293.03;5107560;28;20219;-69
2022/01/02 03:55:41;;;;;;;10.97;8.47;;;;;;;2.11;99.25;97281.38;5103185;28;20217;-70
2022/01/02 03:58:11;;;;;;;9.50;8.60;;;;;;;2.18;99.49;97274.94;5116610;28;20217;-69
2022/01/02 04:00:37;;;;;;;9.47;8.30;;;;;;;2.21;98.45;97274.78;5111818;28;20505;-69
2022/01/02 04:03:05;;;;;;;12.00;9.03;;;;;;;2.13;99.64;97279.53;5097115;28;20209;-69
2022/01/02 04:05:32;;;;;;;11.43;9.67;;;;;;;2.09;99.78;97275.41;5095249;28;20200;-69
2022/01/02 04:07:58;;;;;;;10.90;9.50;;;;;;;2.06;99.27;97273.78;5095120;28;20205;-71
2022/01/02 04:10:25;;;;;;;10.23;9.03;;;;;;;2.18;98.55;97277.53;5096347;28;20563;-71
2022/01/02 04:12:51;;;;;;;9.00;8.10;;;;;;;2.19;98.52;97268.81;5096338;28;20204;-68
2022/01/02 04:15:18;;;;;;;8.70;7.73;;;;;;;2.23;98.51;97262.50;5099238;28;20222;-68
2022/01/02 04:17:44;;;;;;;10.03;8.17;;;;;;;2.22;99.03;97268.66;5115842;28;20226;-70
2022/01/02 04:20:14;;;;;;;9.53;8.37;;;;;;;2.13;99.31;97261.25;5098407;28;20234;-68
2022/01/02 04:22:41;;;;;;;10.57;8.07;;;;;;;2.17;99.95;97254.97;5095372;28;20205;-70
2022/01/02 04:25:08;;;;;;;7.87;7.10;;;;;;;2.04;98.94;97246.09;5113599;28;20206;-70
2022/01/02 04:27:35;;;;;;;9.53;7.60;;;;;;;2.12;99.84;97247.41;5115538;28;20592;-69
2022/01/02 04:30:02;;;;;;;8.00;7.20;;;;;;;2.09;99.40;97241.50;5115226;28;20223;-70
2022/01/02 04:32:28;;;;;;;10.03;8.23;;;;;;;2.03;99.45;97247.00;5105786;28;20204;-69
2022/01/02 04:34:55;;;;;;;9.47;8.37;;;;;;;2.08;98.78;97247.63;5112902;28;20208;-69
2022/01/02 04:37:22;;;;;;;12.63;8.70;;;;;;;2.08;99.29;97245.84;5115148;28;20209;-69
2022/01/02 04:39:49;;;;;;;9.60;8.10;;;;;;;2.07;98.89;97244.16;5115407;28;20265;-70
2022/01/02 04:42:15;;;;;;;9.10;7.93;;;;;;;2.14;98.84;97245.53;5107795;28;20227;-71
2022/01/02 04:44:42;;;;;;;10.13;8.47;;;;;;;2.12;100.00;97249.16;5113189;28;20208;-71
2022/01/02 04:47:08;;;;;;;10.63;9.37;;;;;;;2.10;98.85;97240.56;5115343;28;20235;-70
2022/01/02 04:49:35;;;;;;;10.33;9.23;;;;;;;2.17;99.19;97228.88;5109636;28;20730;-70
2022/01/02 04:52:01;;;;;;;12.63;9.33;;;;;;;2.11;99.45;97224.84;5109765;28;20647;-70
2022/01/02 04:54:29;;;;;;;11.40;9.93;;;;;;;2.12;98.94;97229.13;5113159;28;20212;-69
2022/01/02 04:56:56;;;;;;;11.00;9.70;;;;;;;2.06;99.83;97231.19;5104007;28;20208;-70
2022/01/02 04:59:22;;;;;;;11.00;8.70;;;;;;;2.02;99.16;97227.06;5114939;28;20211;-70
2022/01/02 05:01:49;;;;;;;8.90;8.00;;;;;;;2.06;98.73;97220.75;5116247;28;20203;-71
2022/01/02 05:04:15;;;;;;;9.10;7.50;;;;;;;1.98;98.34;97224.59;5118051;28;20216;-71
2022/01/02 05:06:41;;;;;;;9.17;8.20;;;;;;;2.03;100.00;97215.69;5106147;28;20205;-71
2022/01/02 05:09:08;;;;;;;10.30;7.57;;;;;;;1.92;99.47;97208.41;5119322;28;20226;-68
2022/01/02 05:11:36;;;;;;;11.10;8.37;;;;;;;1.95;99.12;97203.88;5102027;28;20223;-70
2022/01/02 05:14:02;;;;;;;8.37;7.50;;;;;;;1.93;98.84;97207.50;5119042;28;20215;-69
2022/01/02 05:16:29;;;;;;;10.43;7.27;;;;;;;1.86;99.35;97214.78;5119085;28;20211;-69
2022/01/02 05:18:55;;;;;;;6.60;6.00;;;;;;;1.94;99.50;97204.81;5119105;28;20207;-69
2022/01/02 05:21:22;;;;;;;6.50;5.77;;;;;;;1.85;98.57;97205.25;5119095;28;20310;-69
2022/01/02 05:23:48;;;;;;;5.73;5.23;;;;;;;1.95;98.67;97206.50;5105519;28;20205;-71
2022/01/02 05:26:15;;;;;;;6.30;5.70;;;;;;;1.97;99.58;97209.03;5119248;28;20219;-70
2022/01/02 05:28:43;;;;;;;6.10;5.53;;;;;;;1.90;99.64;97213.72;5118754;28;20216;-70
2022/01/02 05:31:09;;;;;;;6.00;5.40;;;;;;;1.92;98.70;97204.03;5118787;28;20235;-70
2022/01/02 05:33:36;;;;;;;6.73;6.03;;;;;;;2.02;98.93;97198.38;5105023;28;20283;-70
2022/01/02 05:36:02;;;;;;;7.23;6.53;;;;;;;2.07;99.12;97196.34;5105788;28;20208;-70
2022/01/02 05:38:29;;;;;;;7.57;6.33;;;;;;;1.96;99.46;97195.16;5118827;28;20210;-69
2022/01/02 05:40:56;;;;;;;7.73;6.93;;;;;;;1.90;98.35;97199.81;5118660;28;20207;-71
2022/01/02 05:43:22;;;;;;;8.23;6.83;;;;;;;1.96;98.92;97199.50;5099863;28;20685;-70
2022/01/02 05:45:50;;;;;;;7.93;7.13;;;;;;;1.83;99.33;97196.69;5104577;28;20203;-71
2022/01/02 05:48:17;;;;;;;9.13;7.93;;;;;;;1.92;99.27;97198.81;5119069;28;20205;-69
2022/01/02 05:50:43;;;;;;;8.87;7.97;;;;;;;1.97;98.88;97190.78;5113620;28;20236;-69
2022/01/02 05:53:09;;;;;;;10.70;9.03;;;;;;;1.97;99.09;97202.06;5112838;28;20203;-70
2022/01/02 05:55:36;;;;;;;10.50;9.20;;;;;;;1.93;99.01;97200.50;5105671;28;20215;-70
2022/01/02 05:58:03;;;;;;;11.30;9.03;;;;;;;1.88;99.96;97205.09;5135894;28;20596;-69
2022/01/02 06:00:29;;;;;;;13.93;9.60;;;;;;;1.94;99.76;97194.38;5140501;28;20187;-71
2022/01/02 06:02:57;;;;;;;13.03;10.13;;;;;;;1.87;99.21;97203.44;5131370;28;20260;-71
2022/01/02 06:05:23;;;;;;;11.07;9.40;;;;;;;1.92;99.68;97209.25;5116176;28;20208;-70
2022/01/02 06:07:50;;;;;;;14.03;11.00;;;;;;;1.89;99.99;97214.63;5107371;28;20209;-69
2022/01/02 06:10:16;;;;;;;11.77;10.13;;;;;;;1.96;99.28;97209.94;5111165;28;20238;-70
2022/01/02 06:12:43;;;;;;;11.07;9.20;;;;;;;1.94;99.50;97202.22;5098067;28;20231;-71
2022/01/02 06:15:09;;;;;;;10.10;8.77;;;;;;;1.91;99.52;97210.16;5097932;28;20215;-70
2022/01/02 06:17:36;;;;;;;9.50;7.90;;;;;;;1.93;100.00;97205.72;5107218;28;20204;-72
2022/01/02 06:20:05;;;;;;;9.47;8.47;;;;;;;1.93;100.00;97212.72;5117973;28;20638;-70
2022/01/02 06:22:31;;;;;;;7.73;6.93;;;;;;;1.93;100.00;97205.72;5110819;28;20279;-69
2022/01/02 06:24:57;;;;;;;9.30;8.23;;;;;;;1.91;100.00;97204.94;5114198;28;20217;-71
2022/01/02 06:27:24;;;;;;;9.77;8.40;;;;;;;1.92;100.00;97214.47;5117851;28;20211;-70
2022/01/02 06:29:50;;;;;;;9.07;8.10;;;;;;;1.87;100.00;97208.66;5117783;28;20223;-70
2022/01/02 06:32:17;;;;;;;9.97;8.27;;;;;;;1.93;100.00;97210.94;5113084;28;20208;-70
2022/01/02 06:34:46;;;;;;;10.30;8.90;;;;;;;1.93;100.00;97210.94;5112488;28;20216;-67
2022/01/02 06:37:13;;;;;;;9.37;8.37;;;;;;;1.92;100.00;97211.88;5097848;28;20219;-69
2022/01/02 06:39:40;;;;;;;10.17;8.73;;;;;;;1.86;100.00;97217.41;5100411;28;20283;-71
2022/01/02 06:42:07;;;;;;;10.67;8.17;;;;;;;1.85;99.18;97217.44;5114710;28;20205;-70
2022/01/02 06:44:34;;;;;;;8.30;7.30;;;;;;;1.80;99.87;97212.50;5110756;28;20200;-70
2022/01/02 06:47:00;;;;;;;10.07;7.90;;;;;;;1.82;100.00;97217.59;5098461;28;20244;-70
2022/01/02 06:49:26;;;;;;;8.40;7.50;;;;;;;1.85;100.00;97213.09;5114129;28;20214;-69
2022/01/02 06:51:53;;;;;;;8.80;7.50;;;;;;;1.80;100.00;97215.09;5116868;28;20208;-70
2022/01/02 06:54:21;;;;;;;9.00;7.40;;;;;;;1.78;100.00;97211.69;5114782;28;20211;-72
2022/01/02 06:56:47;;;;;;;10.63;7.70;;;;;;;1.80;100.00;97204.66;5111183;28;20200;-70
2022/01/02 06:59:14;;;;;;;8.10;7.30;;;;;;;1.84;99.60;97210.56;5115168;28;20576;-71
2022/01/02 07:01:41;;;;;;;8.97;6.73;;;;;;;1.82;100.00;97210.63;5106398;28;20205;-69
2022/01/02 07:04:07;;;;;;;7.77;6.90;;;;;;;1.80;100.00;97209.03;5116960;28;20207;-71
2022/01/02 07:06:34;;;;;;;7.70;6.90;;;;;;;1.81;99.84;97206.34;5107048;28;20209;-71
2022/01/02 07:09:00;;;;;;;11.33;6.90;;;;;;;1.77;99.91;97207.41;5116313;28;20218;-69
2022/01/02 07:11:28;;;;;;;8.80;7.13;;;;;;;1.74;99.69;97210.16;5106936;28;20236;-69
2022/01/02 07:13:55;;;;;;;9.07;7.30;;;;;;;1.82;99.42;97213.25;5113157;28;20218;-73
2022/01/02 07:16:21;;;;;;;7.90;7.10;;;;;;;1.82;99.54;97218.47;5114433;28;20287;-70
2022/01/02 07:18:48;;;;;;;7.80;6.33;;;;;;;1.80;98.99;97225.53;5106681;28;20208;-70
2022/01/02 07:21:14;;;;;;;8.30;7.17;;;;;;;1.78;98.94;97224.75;5108808;28;20623;-70
2022/01/02 07:23:41;;;;;;;8.60;6.80;;;;;;;1.76;100.00;97223.97;5107145;28;20207;-70
2022/01/02 07:26:07;;;;;;;8.00;6.53;;;;;;;1.73;99.55;97213.72;5116890;28;20211;-71
2022/01/02 07:28:35;;;;;;;6.87;6.17;;;;;;;1.80;99.80;97222.06;5116959;28;20207;-70
2022/01/02 07:31:02;;;;;;;8.03;6.10;;;;;;;1.83;100.00;97220.16;5103755;28;20225;-71
2022/01/02 07:33:28;;;;;;;8.77;7.10;;;;;;;1.81;100.00;97221.97;5109223;28;20208;-70
2022/01/02 07:35:55;;;;;;;9.07;6.67;;;;;;;1.89;100.00;97225.06;5116563;28;20563;-70
2022/01/02 07:38:21;;;;;;;7.10;6.37;;;;;;;1.83;100.00;97227.97;5116619;28;20212;-72
2022/01/02 07:40:48;;;;;;;7.30;6.50;;;;;;;1.87;99.57;97223.47;5116513;28;20201;-70
2022/01/02 07:43:15;;;;;;;8.33;6.90;;;;;;;1.89;99.91;97224.22;5113455;28;20623;-70
2022/01/02 07:45:43;;;;;;;7.00;6.30;;;;;;;1.94;100.00;97223.06;5115534;28;20572;-70
2022/01/02 07:48:09;;;;;;;8.37;7.10;;;;;;;2.02;100.00;97219.25;5116574;28;20286;-71
2022/01/02 07:50:36;;;;;;;8.07;7.27;;;;;;;2.04;100.00;97214.78;5116633;28;20667;-70
2022/01/02 07:53:02;;;;;;;8.60;6.83;;;;;;;2.15;100.00;97207.25;5114552;28;20622;-69
2022/01/02 07:55:28;;;;;;;8.57;7.37;;;;;;;2.28;100.00;97211.78;5104886;28;20215;-71
2022/01/02 07:57:55;;;;;;;8.57;7.67;;;;;;;2.41;100.00;97206.75;5116103;28;20211;-71
2022/01/02 08:00:21;;;;;;;8.57;7.67;;;;;;;2.58;100.00;97211.97;5112947;28;20200;-70
2022/01/02 08:02:49;;;;;;;10.33;7.80;;;;;;;2.74;100.00;97214.59;5096055;28;20212;-70
2022/01/02 08:05:16;;;;;;;10.30;8.07;;;;;;;2.81;100.00;97216.78;5112635;28;20211;-70
2022/01/02 08:07:42;;;;;;;9.53;7.87;;;;;;;2.90;100.00;97215.47;5138512;28;20198;-70
2022/01/02 08:10:09;;;;;;;11.13;7.93;;;;;;;3.00;100.00;97214.88;5137798;28;20222;-70
2022/01/02 08:12:36;;;;;;;10.57;8.27;;;;;;;3.07;100.00;97227.63;5122242;28;20608;-71
2022/01/02 08:15:02;;;;;;;10.90;8.27;;;;;;;3.17;100.00;97231.41;5097687;28;20215;-69
2022/01/02 08:17:29;;;;;;;9.27;8.10;;;;;;;3.21;99.47;97235.53;5096346;28;20212;-70
2022/01/02 08:19:56;;;;;;;9.33;8.27;;;;;;;3.32;99.61;97234.03;5112852;28;20208;-70
2022/01/02 08:22:23;;;;;;;8.43;7.27;;;;;;;3.48;99.91;97245.31;5115190;28;20211;-72
2022/01/02 08:24:50;;;;;;;10.83;8.83;;;;;;;3.54;100.00;97238.06;5110394;28;20528;-70
2022/01/02 08:27:16;;;;;;;9.53;8.53;;;;;;;3.66;100.00;97240.84;5106637;28;20208;-70
2022/01/02 08:29:42;;;;;;;9.77;8.77;;;;;;;3.75;99.46;97242.09;5099954;28;20210;-71
2022/01/02 08:32:09;;;;;;;9.73;8.57;;;;;;;3.73;99.38;97239.56;5107098;28;20312;-68
2022/01/02 08:34:36;;;;;;;11.27;10.03;;;;;;;3.77;98.87;97238.47;5116239;28;20531;-70
2022/01/02 08:37:04;;;;;;;14.63;10.50;;;;;;;3.87;98.87;97244.84;5108098;28;20613;-69
2022/01/02 08:39:30;;;;;;;12.93;11.07;;;;;;;3.97;98.62;97243.38;5100561;28;20214;-71
2022/01/02 08:41:57;;;;;;;11.07;9.97;;;;;;;4.14;98.58;97233.75;5117134;28;20205;-70
2022/01/02 08:44:23;;;;;;;12.40;11.10;;;;;;;4.22;97.09;97215.78;5099878;28;20234;-69
2022/01/02 08:46:50;;;;;;;12.37;10.87;;;;;;;4.39;97.46;97218.28;5096916;28;20245;-68
2022/01/02 08:49:17;;;;;;;14.87;11.90;;;;;;;4.52;97.42;97213.97;5112643;28;20210;-68
2022/01/02 08:51:43;;;;;;;13.23;11.73;;;;;;;4.69;97.59;97220.81;5111934;28;20235;-70
2022/01/02 08:54:11;;;;;;;12.67;11.37;;;;;;;4.89;97.06;97215.19;5126350;28;20227;-70
2022/01/02 08:56:38;;;;;;;12.63;11.33;;;;;;;5.03;95.04;97229.13;5135259;28;20204;-70
2022/01/02 08:59:04;;;;;;;14.60;12.07;;;;;;;5.00;93.62;97242.44;5128655;28;20299;-71
2022/01/02 09:01:31;;;;;;;13.33;11.60;;;;;;;5.21;95.67;97248.13;5122567;28;20197;-70
2022/01/02 09:03:57;;;;;;;12.47;11.17;;;;;;;5.37;94.57;97248.88;5122285;28;20205;-70
2022/01/02 09:06:23;;;;;;;12.33;10.87;;;;;;;5.56;93.97;97256.41;5114668;28;20197;-69
2022/01/02 09:08:50;;;;;;;12.07;10.87;;;;;;;5.83;90.75;97259.88;5113064;28;20209;-69
2022/01/02 09:11:18;;;;;;;12.47;11.10;;;;;;;5.82;90.93;97262.59;5101020;28;20560;-70
2022/01/02 09:13:44;;;;;;;12.03;10.70;;;;;;;6.19;90.20;97269.81;5102838;28;20200;-70
2022/01/02 09:16:10;;;;;;;11.30;10.20;;;;;;;6.40;89.02;97264.91;5114911;28;20623;-70
2022/01/02 09:18:37;;;;;;;13.03;10.67;;;;;;;6.41;88.28;97258.72;5109638;28;20403;-70
2022/01/02 09:21:03;;;;;;;11.23;10.03;;;;;;;6.45;87.54;97257.56;5106957;28;20528;-70
2022/01/02 09:23:30;;;;;;;10.73;9.70;;;;;;;6.22;88.10;97269.59;5107574;28;20620;-70
2022/01/02 09:25:56;;;;;;;11.23;10.00;;;;;;;6.13;88.91;97266.75;5104073;28;20217;-70
2022/01/02 09:28:24;;;;;;;12.87;10.10;;;;;;;5.99;88.68;97260.59;5113663;28;20205;-70
2022/01/02 09:30:51;;;;;;;10.83;9.73;;;;;;;6.21;87.96;97254.78;5115359;28;20232;-69
2022/01/02 09:33:17;;;;;;;10.97;9.87;;;;;;;6.00;87.71;97236.03;5115372;28;20209;-70
2022/01/02 09:35:44;;;;;;;10.40;9.40;;;;;;;6.02;89.58;97251.72;5113751;28;20205;-69
2022/01/02 09:38:10;;;;;;;12.20;10.53;;;;;;;5.94;89.74;97244.31;5110430;28;20232;-71
2022/01/02 09:40:37;;;;;;;10.63;9.50;;;;;;;5.97;91.02;97257.25;5095330;28;20591;-69
2022/01/02 09:43:05;;;;;;;10.73;9.13;;;;;;;6.02;89.72;97250.84;5108194;28;20543;-69
2022/01/02 09:45:33;;;;;;;10.40;9.30;;;;;;;5.90;90.62;97266.47;5096393;28;20209;-70
2022/01/02 09:48:01;;;;;;;11.10;9.87;;;;;;;5.79;90.63;97258.41;5104408;28;20690;-69
2022/01/02 09:50:28;;;;;;;10.70;9.60;;;;;;;5.76;90.60;97279.59;5118914;28;20204;-70
2022/01/02 09:52:55;;;;;;;10.83;9.73;;;;;;;5.73;90.41;97274.53;5118847;28;20213;-70
2022/01/02 09:55:21;;;;;;;11.50;10.07;;;;;;;6.08;92.15;97284.56;5119347;28;20205;-70
2022/01/02 09:57:49;;;;;;;11.77;10.57;;;;;;;7.12;86.72;97274.00;5119016;28;20212;-70
2022/01/02 10:00:16;;;;;;;10.63;9.53;;;;;;;8.08;81.73;97275.88;5112370;28;20593;-70
2022/01/02 10:03:03;;;;;;;11.07;9.97;;;;;;;9.07;77.84;97279.81;5118802;28;20201;-70
2022/01/02 10:05:31;;;;;;;10.43;9.37;;;;;;;9.78;71.75;97280.25;5112687;28;20591;-71
2022/01/02 10:07:58;;;;;;;9.93;9.03;;;;;;;10.35;70.69;97276.50;5108541;28;20220;-70
2022/01/02 10:10:34;;;;;;;9.02;8.13;;;;;;;10.82;67.78;97273.41;5114579;28;20220;-72
2022/01/02 10:13:02;;;;;;;8.40;7.60;;;;;;;11.12;65.37;97261.19;5118485;28;20197;-72
2022/01/02 10:15:29;;;;;;;8.40;7.70;;;;;;;11.35;63.73;97270.63;5103498;28;20212;-72
2022/01/02 10:18:02;;;;;;;8.32;7.60;;;;;;;11.50;64.27;97274.63;5118089;28;20205;-70
2022/01/02 10:20:32;;;;;;;8.93;8.02;;;;;;;12.22;62.84;97271.78;5118716;28;20621;-70
2022/01/02 10:23:12;;;;;;;8.48;7.68;;;;;;;12.91;60.81;97259.19;5106826;28;20467;-71
2022/01/02 10:25:48;;;;;;;9.13;8.35;;;;;;;13.06;57.81;97251.59;5083821;28;20191;-71
2022/01/02 10:28:20;;;;;;;9.57;8.68;;;;;;;13.69;56.79;97245.53;5096736;28;20201;-71
2022/01/02 10:30:46;;;;;;;8.52;7.72;;;;;;;13.25;57.96;97246.28;5098576;28;20198;-71
2022/01/02 10:33:14;;;;;;;8.95;8.18;;;;;;;13.13;56.21;97235.00;5107399;28;20206;-72
2022/01/02 10:35:43;;;;;;;9.20;8.15;;;;;;;12.71;58.27;97245.13;5099306;28;20206;-71
2022/01/02 10:38:15;;;;;;;8.57;7.80;;;;;;;13.05;58.74;97234.00;5113353;28;20216;-72
2022/01/02 10:40:42;;;;;;;8.77;7.95;;;;;;;12.47;59.67;97242.88;5118606;28;20304;-69
2022/01/02 10:43:13;;;;;;;9.27;8.48;;;;;;;12.82;60.59;97244.94;5117861;28;20311;-71
2022/01/02 10:45:41;;;;;;;9.13;8.32;;;;;;;12.73;61.80;97239.66;5113693;28;20669;-71
2022/01/02 10:48:10;;;;;;;9.98;8.95;;;;;;;13.27;59.66;97239.84;5114863;28;20209;-70
2022/01/02 10:50:38;;;;;;;10.43;9.43;;;;;;;13.36;58.44;97243.44;5118054;28;20502;-72
2022/01/02 10:53:15;;;;;;;9.95;9.15;;;;;;;13.13;59.98;97237.66;5121132;28;20213;-69
2022/01/02 10:55:44;;;;;;;10.25;9.25;;;;;;;12.97;58.86;97226.75;5120894;28;20216;-71
2022/01/02 10:58:10;;;;;;;9.90;9.00;;;;;;;12.52;60.66;97220.41;5115873;28;20212;-72
2022/01/02 11:00:37;;;;;;;10.15;9.15;;;;;;;12.01;63.49;97239.22;5118618;28;20205;-70
2022/01/02 11:03:06;;;;;;;9.73;8.88;;;;;;;11.84;64.15;97244.22;5117879;28;20290;-71
2022/01/02 11:05:34;;;;;;;9.27;8.48;;;;;;;11.15;66.73;97237.13;5112335;28;20257;-71
2022/01/02 11:08:04;;;;;;;10.70;9.70;;;;;;;10.96;67.84;97233.38;5107926;28;20249;-69
2022/01/02 11:10:31;;;;;;;10.33;9.40;;;;;;;10.90;70.16;97239.22;5109173;28;20197;-70
2022/01/02 11:12:58;;;;;;;10.23;8.93;;;;;;;10.63;72.23;97246.81;5100179;28;20232;-70
2022/01/02 11:15:26;;;;;;;9.87;8.97;;;;;;;10.45;72.55;97254.47;5112351;28;20189;-71
2022/01/02 11:17:53;;;;;;;10.27;9.37;;;;;;;10.38;72.66;97263.06;5109019;28;20613;-70
2022/01/02 11:20:22;;;;;;;10.43;9.43;;;;;;;10.19;73.84;97253.16;5117173;28;20592;-70
2022/01/02 11:22:53;;;;;;;10.80;9.70;;;;;;;9.98;73.67;97237.22;5117084;28;20216;-69
2022/01/02 11:25:26;;;;;;;10.23;9.23;;;;;;;10.06;76.02;97248.97;5113257;28;20202;-70
2022/01/02 11:27:58;;;;;;;11.07;9.97;;;;;;;9.98;74.21;97242.50;5108307;28;20530;-69
2022/01/02 11:30:45;;;;;;;11.53;10.37;;;;;;;10.02;75.08;97233.34;5125329;28;20291;-68
2022/01/02 11:33:15;;;;;;;11.33;10.13;;;;;;;10.03;75.08;97231.53;5120484;28;20239;-70
2022/01/02 11:35:43;;;;;;;13.17;11.53;;;;;;;10.06;74.11;97231.28;5114619;28;20216;-70
2022/01/02 11:38:10;;;;;;;11.73;10.53;;;;;;;10.10;77.26;97221.31;5115580;28;20216;-70
2022/01/02 11:40:58;;;;;;;11.97;10.77;;;;;;;10.15;76.33;97224.47;5117297;28;20586;-69